Grace — PBCR — position and weather

sailwx.info

Track history (hours):
 
Tides and Currents Weather Stations Pressure Air Temp Water Temp Dewpoint Dewpoint Depression Visibility Wind Speed Wind Dir Waves Ship Positions

Grace

Last reported at 2014-Oct-27 14:34 UTC. Time now 2014-Oct-31 13:44 UTC.
Position N 63°35' E 009°50'.

Length 48 m; draft 2.8 m.

Type: Ship. MMSI: 244657000.

Date/timePositionNaut miles runAvg speedWind from/ knotsBaromVisibWave heightAir tempDewpointWater temp
2014-Oct-27 14:34N 63°35' E 009°50'9 9.4
2014-Oct-27 13:34N 63°29' E 010°05'9 8.5
2014-Oct-27 12:32N 63°26' E 010°24'0 0.1
2014-Oct-27 11:34N 63°27' E 010°24'9 8.5
2014-Oct-27 10:33N 63°28' E 010°05'  
2014-Oct-25 06:19N 64°49' E 011°08'4 4.9
2014-Oct-25 05:33N 64°51' E 011°14'0 0.0
2014-Oct-25 04:31N 64°51' E 011°14'0 0.0
2014-Oct-25 03:31N 64°51' E 011°14'0 0.0
2014-Oct-25 02:31N 64°51' E 011°14'0 0.0
2014-Oct-25 01:31N 64°51' E 011°14'0 0.0
2014-Oct-25 00:31N 64°51' E 011°14'0 0.0
2014-Oct-24 23:31N 64°51' E 011°14'0 0.0
2014-Oct-24 22:31N 64°51' E 011°14'0 0.0
2014-Oct-24 21:31N 64°52' E 011°14'0 0.0
2014-Oct-24 20:31N 64°51' E 011°14'0 0.0
2014-Oct-24 19:31N 64°51' E 011°14'0 0.0
2014-Oct-24 18:31N 64°51' E 011°14'0 0.0
2014-Oct-24 17:31N 64°51' E 011°14'0 0.0
2014-Oct-24 16:31N 64°51' E 011°14'0 0.0
2014-Oct-24 07:31N 64°52' E 011°14'0 0.0
2014-Oct-24 06:31N 64°52' E 011°14'0 0.0
2014-Oct-24 05:31N 64°52' E 011°14'0 0.0
2014-Oct-24 04:31N 64°52' E 011°14'0 0.0
2014-Oct-24 03:31N 64°52' E 011°14'0 0.0
2014-Oct-24 02:31N 64°52' E 011°14'0 0.0
2014-Oct-24 01:31N 64°51' E 011°14'0 0.0
2014-Oct-24 00:31N 64°51' E 011°14'0 0.0
2014-Oct-23 23:31N 64°52' E 011°14'0 0.0
2014-Oct-23 22:31N 64°51' E 011°14'0 0.0
2014-Oct-23 21:31N 64°51' E 011°14'0 0.0
2014-Oct-23 20:31N 64°52' E 011°14'0 0.0
2014-Oct-23 19:31N 64°52' E 011°14'0 0.0
2014-Oct-23 18:31N 64°51' E 011°14'0 0.0
2014-Oct-23 17:31N 64°52' E 011°14'0 0.0
2014-Oct-23 16:31N 64°52' E 011°14'0 0.0
2014-Oct-23 15:28N 64°51' E 011°14'0 0.0
2014-Oct-23 14:31N 64°52' E 011°14'0 0.0
2014-Oct-23 13:28N 64°52' E 011°14'0 0.0
2014-Oct-23 12:31N 64°52' E 011°14'0 0.0
2014-Oct-23 11:31N 64°52' E 011°14'0 0.0
2014-Oct-23 10:31N 64°52' E 011°14'0 0.0
2014-Oct-23 09:31N 64°52' E 011°14'0 0.0
2014-Oct-23 08:31N 64°51' E 011°14'0 0.0
2014-Oct-23 07:31N 64°51' E 011°14'0 0.0
2014-Oct-23 06:31N 64°52' E 011°14'0 0.0
2014-Oct-23 05:31N 64°52' E 011°14'0 0.0
2014-Oct-23 04:31N 64°52' E 011°14'0 0.0
2014-Oct-23 03:31N 64°52' E 011°14'0 0.0
2014-Oct-23 02:31N 64°52' E 011°14'0 0.0
2014-Oct-23 01:31N 64°52' E 011°14'0 0.0
2014-Oct-23 00:31N 64°51' E 011°14'0 0.0
2014-Oct-22 23:31N 64°52' E 011°14'0 0.0
2014-Oct-22 22:31N 64°51' E 011°14'0 0.0
2014-Oct-22 21:31N 64°52' E 011°14'0 0.0
2014-Oct-22 20:31N 64°51' E 011°14'0 0.0
2014-Oct-22 19:31N 64°52' E 011°14'0 0.0
2014-Oct-22 18:31N 64°51' E 011°14'0 0.0
2014-Oct-22 17:31N 64°52' E 011°14'0 0.0
2014-Oct-22 16:31N 64°51' E 011°14'0 0.0
2014-Oct-22 15:31N 64°52' E 011°14'0 0.0
2014-Oct-22 14:31N 64°52' E 011°14'0 0.0
2014-Oct-22 13:31N 64°52' E 011°14'0 0.0
2014-Oct-22 12:31N 64°52' E 011°14'0 0.0
2014-Oct-22 11:31N 64°52' E 011°14'0 0.0
2014-Oct-22 10:31N 64°52' E 011°14'0 0.0
2014-Oct-22 09:31N 64°52' E 011°14'0 0.0
2014-Oct-22 08:31N 64°52' E 011°14'0 0.0
2014-Oct-22 07:31N 64°51' E 011°14'0 0.0
2014-Oct-22 06:31N 64°52' E 011°14'0 0.0
2014-Oct-22 05:31N 64°52' E 011°14'0 0.0
2014-Oct-22 04:31N 64°51' E 011°14'0 0.0
2014-Oct-22 03:31N 64°51' E 011°14'0 0.0
2014-Oct-22 02:31N 64°52' E 011°14'0 0.0
2014-Oct-22 01:31N 64°52' E 011°14'0 0.0
2014-Oct-22 00:31N 64°51' E 011°14'0 0.0
2014-Oct-21 23:31N 64°51' E 011°14'0 0.0
2014-Oct-21 22:31N 64°51' E 011°14'0 0.0
2014-Oct-21 21:31N 64°52' E 011°14'0 0.0
2014-Oct-21 20:31N 64°52' E 011°14'0 0.0
2014-Oct-21 19:31N 64°52' E 011°14'0 0.0
2014-Oct-21 18:31N 64°51' E 011°14'0 0.0
2014-Oct-21 17:31N 64°52' E 011°14'0 0.0
2014-Oct-21 16:31N 64°52' E 011°14'0 0.0
2014-Oct-21 15:31N 64°52' E 011°14'0 0.0
2014-Oct-21 14:31N 64°52' E 011°14'0 0.0
2014-Oct-21 13:31N 64°52' E 011°14'0 0.0
2014-Oct-21 12:31N 64°52' E 011°14'0 0.0
2014-Oct-21 11:31N 64°52' E 011°14'0 0.0
2014-Oct-21 10:31N 64°52' E 011°14'0 0.0
2014-Oct-21 09:31N 64°51' E 011°14'0 0.0
2014-Oct-21 08:31N 64°52' E 011°14'0 0.0
2014-Oct-21 07:31N 64°51' E 011°14'0 0.0
2014-Oct-21 06:31N 64°52' E 011°14'0 0.0
2014-Oct-21 05:31N 64°52' E 011°14'0 0.0
2014-Oct-21 04:31N 64°52' E 011°14'0 0.0
2014-Oct-21 03:31N 64°52' E 011°14'0 0.0
2014-Oct-21 02:31N 64°51' E 011°14'0 0.0
2014-Oct-21 01:31N 64°52' E 011°14'0 0.0
2014-Oct-21 00:31N 64°51' E 011°14'0 0.0
2014-Oct-20 23:31N 64°51' E 011°14'0 0.0
2014-Oct-20 22:31N 64°51' E 011°14'0 0.0
2014-Oct-20 21:31N 64°52' E 011°14'0 0.0
2014-Oct-20 20:31N 64°52' E 011°14'0 0.0
2014-Oct-20 19:31N 64°52' E 011°14'0 0.0
2014-Oct-20 18:31N 64°51' E 011°14'0 0.0
2014-Oct-20 17:31N 64°51' E 011°14'0 0.0
2014-Oct-20 16:31N 64°52' E 011°14'0 0.0
2014-Oct-20 15:31N 64°51' E 011°14'0 0.0
2014-Oct-20 14:31N 64°52' E 011°14'0 0.0
2014-Oct-20 13:31N 64°52' E 011°14'0 0.0
2014-Oct-20 12:31N 64°52' E 011°14'0 0.0
2014-Oct-20 11:31N 64°52' E 011°14'0 0.0
2014-Oct-20 10:31N 64°52' E 011°14'0 0.0
2014-Oct-20 09:31N 64°52' E 011°14'0 0.0
2014-Oct-20 08:31N 64°52' E 011°14'0 0.0
2014-Oct-20 07:31N 64°52' E 011°14'0 0.0
2014-Oct-20 06:31N 64°52' E 011°14'0 0.0
2014-Oct-20 05:31N 64°51' E 011°14'0 0.0
2014-Oct-20 04:31N 64°51' E 011°14'0 0.0
2014-Oct-20 03:31N 64°51' E 011°14'0 0.0
2014-Oct-20 02:31N 64°51' E 011°14'0 0.0
2014-Oct-20 01:31N 64°51' E 011°14'0 0.0
2014-Oct-20 00:31N 64°52' E 011°14'0 0.0
2014-Oct-19 23:31N 64°52' E 011°14'0 0.0
2014-Oct-19 22:31N 64°51' E 011°14'0 0.0
2014-Oct-19 21:31N 64°51' E 011°14'0 0.0
2014-Oct-19 20:31N 64°52' E 011°14'0 0.0
2014-Oct-19 19:31N 64°52' E 011°14'0 0.0
2014-Oct-19 18:31N 64°52' E 011°14'0 0.0
2014-Oct-19 17:31N 64°52' E 011°14'0 0.0
2014-Oct-19 16:31N 64°51' E 011°14'0 0.0
2014-Oct-19 15:31N 64°51' E 011°14'0 0.0
2014-Oct-19 14:31N 64°52' E 011°14'0 0.0
2014-Oct-19 13:31N 64°52' E 011°14'0 0.0
2014-Oct-19 12:31N 64°51' E 011°14'0 0.0
2014-Oct-19 11:31N 64°52' E 011°14'0 0.0
2014-Oct-19 10:28N 64°51' E 011°14'0 0.0
2014-Oct-19 09:31N 64°52' E 011°14'0 0.0
2014-Oct-19 08:31N 64°52' E 011°14'0 0.0
2014-Oct-19 07:31N 64°51' E 011°14'0 0.0
2014-Oct-19 06:31N 64°51' E 011°14'0 0.0
2014-Oct-19 05:31N 64°52' E 011°14'0 0.0
2014-Oct-19 04:31N 64°51' E 011°14'0 0.0
2014-Oct-19 03:31N 64°52' E 011°14'0 0.0
2014-Oct-19 02:31N 64°51' E 011°14'0 0.0
2014-Oct-19 01:31N 64°51' E 011°14'0 0.0
2014-Oct-19 00:31N 64°52' E 011°14'0 0.0
2014-Oct-18 23:31N 64°51' E 011°14'0 0.0
2014-Oct-18 22:28N 64°51' E 011°14'0 0.0
2014-Oct-18 21:31N 64°51' E 011°14'0 0.0
2014-Oct-18 20:31N 64°51' E 011°14'0 0.0
2014-Oct-18 19:31N 64°51' E 011°14'0 0.0
2014-Oct-18 18:31N 64°51' E 011°14'0 0.0
2014-Oct-18 17:31N 64°51' E 011°14'0 0.0
2014-Oct-18 16:31N 64°51' E 011°14'0 0.0
2014-Oct-18 15:31N 64°52' E 011°14'0 0.0
2014-Oct-18 14:31N 64°51' E 011°14'0 0.0
2014-Oct-18 13:31N 64°52' E 011°14'0 0.0
2014-Oct-18 12:31N 64°52' E 011°14'0 0.0
2014-Oct-18 11:31N 64°52' E 011°14'0 0.0
2014-Oct-18 10:31N 64°51' E 011°14'0 0.0
2014-Oct-18 09:31N 64°51' E 011°14'0 0.0
2014-Oct-18 08:31N 64°52' E 011°14'0 0.0
2014-Oct-18 07:31N 64°51' E 011°14'0 0.0
2014-Oct-18 06:31N 64°51' E 011°14'0 0.0
2014-Oct-18 05:31N 64°52' E 011°14'0 0.0
2014-Oct-18 04:31N 64°52' E 011°14'0 0.0
2014-Oct-18 03:31N 64°52' E 011°14'0 0.0
2014-Oct-18 02:31N 64°51' E 011°14'0 0.0
2014-Oct-18 01:31N 64°51' E 011°14'0 0.0
2014-Oct-18 00:31N 64°52' E 011°14'0 0.0
2014-Oct-17 23:31N 64°52' E 011°14'0 0.0
2014-Oct-17 22:31N 64°51' E 011°14'0 0.0
2014-Oct-17 21:31N 64°51' E 011°14'0 0.0
2014-Oct-17 20:31N 64°52' E 011°14'0 0.0
2014-Oct-17 19:31N 64°52' E 011°14'0 0.0
2014-Oct-17 18:31N 64°51' E 011°14'0 0.0
2014-Oct-17 17:31N 64°52' E 011°14'0 0.0
2014-Oct-17 16:31N 64°52' E 011°14'0 0.0
2014-Oct-17 15:31N 64°51' E 011°14'  
Track history (hours):
 
Tides and Currents Weather Stations Pressure Air Temp Water Temp Dewpoint Dewpoint Depression Visibility Wind Speed Wind Dir Waves Ship Positions

Grace

Last reported at 2014-Oct-27 14:34 UTC. Time now 2014-Oct-31 13:44 UTC.
Position N 63°35' E 009°50'.

Length 48 m; draft 2.8 m.

Type: Ship. MMSI: 244657000.

Date/timePositionNaut miles runAvg speedWind from/ knotsBaromVisibWave heightAir tempDewpointWater temp
2014-Oct-27 14:34N 63°35' E 009°50'9 9.4
2014-Oct-27 13:34N 63°29' E 010°05'9 8.5
2014-Oct-27 12:32N 63°26' E 010°24'0 0.1
2014-Oct-27 11:34N 63°27' E 010°24'9 8.5
2014-Oct-27 10:33N 63°28' E 010°05'  
2014-Oct-25 06:19N 64°49' E 011°08'4 4.9
2014-Oct-25 05:33N 64°51' E 011°14'0 0.0
2014-Oct-25 04:31N 64°51' E 011°14'0 0.0
2014-Oct-25 03:31N 64°51' E 011°14'0 0.0
2014-Oct-25 02:31N 64°51' E 011°14'0 0.0
2014-Oct-25 01:31N 64°51' E 011°14'0 0.0
2014-Oct-25 00:31N 64°51' E 011°14'0 0.0
2014-Oct-24 23:31N 64°51' E 011°14'0 0.0
2014-Oct-24 22:31N 64°51' E 011°14'0 0.0
2014-Oct-24 21:31N 64°52' E 011°14'0 0.0
2014-Oct-24 20:31N 64°51' E 011°14'0 0.0
2014-Oct-24 19:31N 64°51' E 011°14'0 0.0
2014-Oct-24 18:31N 64°51' E 011°14'0 0.0
2014-Oct-24 17:31N 64°51' E 011°14'0 0.0
2014-Oct-24 16:31N 64°51' E 011°14'0 0.0
2014-Oct-24 07:31N 64°52' E 011°14'0 0.0
2014-Oct-24 06:31N 64°52' E 011°14'0 0.0
2014-Oct-24 05:31N 64°52' E 011°14'0 0.0
2014-Oct-24 04:31N 64°52' E 011°14'0 0.0
2014-Oct-24 03:31N 64°52' E 011°14'0 0.0
2014-Oct-24 02:31N 64°52' E 011°14'0 0.0
2014-Oct-24 01:31N 64°51' E 011°14'0 0.0
2014-Oct-24 00:31N 64°51' E 011°14'0 0.0
2014-Oct-23 23:31N 64°52' E 011°14'0 0.0
2014-Oct-23 22:31N 64°51' E 011°14'0 0.0
2014-Oct-23 21:31N 64°51' E 011°14'0 0.0
2014-Oct-23 20:31N 64°52' E 011°14'0 0.0
2014-Oct-23 19:31N 64°52' E 011°14'0 0.0
2014-Oct-23 18:31N 64°51' E 011°14'0 0.0
2014-Oct-23 17:31N 64°52' E 011°14'0 0.0
2014-Oct-23 16:31N 64°52' E 011°14'0 0.0
2014-Oct-23 15:28N 64°51' E 011°14'0 0.0
2014-Oct-23 14:31N 64°52' E 011°14'0 0.0
2014-Oct-23 13:28N 64°52' E 011°14'0 0.0
2014-Oct-23 12:31N 64°52' E 011°14'0 0.0
2014-Oct-23 11:31N 64°52' E 011°14'0 0.0
2014-Oct-23 10:31N 64°52' E 011°14'0 0.0
2014-Oct-23 09:31N 64°52' E 011°14'0 0.0
2014-Oct-23 08:31N 64°51' E 011°14'0 0.0
2014-Oct-23 07:31N 64°51' E 011°14'0 0.0
2014-Oct-23 06:31N 64°52' E 011°14'0 0.0
2014-Oct-23 05:31N 64°52' E 011°14'0 0.0
2014-Oct-23 04:31N 64°52' E 011°14'0 0.0
2014-Oct-23 03:31N 64°52' E 011°14'0 0.0
2014-Oct-23 02:31N 64°52' E 011°14'0 0.0
2014-Oct-23 01:31N 64°52' E 011°14'0 0.0
2014-Oct-23 00:31N 64°51' E 011°14'0 0.0
2014-Oct-22 23:31N 64°52' E 011°14'0 0.0
2014-Oct-22 22:31N 64°51' E 011°14'0 0.0
2014-Oct-22 21:31N 64°52' E 011°14'0 0.0
2014-Oct-22 20:31N 64°51' E 011°14'0 0.0
2014-Oct-22 19:31N 64°52' E 011°14'0 0.0
2014-Oct-22 18:31N 64°51' E 011°14'0 0.0
2014-Oct-22 17:31N 64°52' E 011°14'0 0.0
2014-Oct-22 16:31N 64°51' E 011°14'0 0.0
2014-Oct-22 15:31N 64°52' E 011°14'0 0.0
2014-Oct-22 14:31N 64°52' E 011°14'0 0.0
2014-Oct-22 13:31N 64°52' E 011°14'0 0.0
2014-Oct-22 12:31N 64°52' E 011°14'0 0.0
2014-Oct-22 11:31N 64°52' E 011°14'0 0.0
2014-Oct-22 10:31N 64°52' E 011°14'0 0.0
2014-Oct-22 09:31N 64°52' E 011°14'0 0.0
2014-Oct-22 08:31N 64°52' E 011°14'0 0.0
2014-Oct-22 07:31N 64°51' E 011°14'0 0.0
2014-Oct-22 06:31N 64°52' E 011°14'0 0.0
2014-Oct-22 05:31N 64°52' E 011°14'0 0.0
2014-Oct-22 04:31N 64°51' E 011°14'0 0.0
2014-Oct-22 03:31N 64°51' E 011°14'0 0.0
2014-Oct-22 02:31N 64°52' E 011°14'0 0.0
2014-Oct-22 01:31N 64°52' E 011°14'0 0.0
2014-Oct-22 00:31N 64°51' E 011°14'0 0.0
2014-Oct-21 23:31N 64°51' E 011°14'0 0.0
2014-Oct-21 22:31N 64°51' E 011°14'0 0.0
2014-Oct-21 21:31N 64°52' E 011°14'0 0.0
2014-Oct-21 20:31N 64°52' E 011°14'0 0.0
2014-Oct-21 19:31N 64°52' E 011°14'0 0.0
2014-Oct-21 18:31N 64°51' E 011°14'0 0.0
2014-Oct-21 17:31N 64°52' E 011°14'0 0.0
2014-Oct-21 16:31N 64°52' E 011°14'0 0.0
2014-Oct-21 15:31N 64°52' E 011°14'0 0.0
2014-Oct-21 14:31N 64°52' E 011°14'0 0.0
2014-Oct-21 13:31N 64°52' E 011°14'0 0.0
2014-Oct-21 12:31N 64°52' E 011°14'0 0.0
2014-Oct-21 11:31N 64°52' E 011°14'0 0.0
2014-Oct-21 10:31N 64°52' E 011°14'0 0.0
2014-Oct-21 09:31N 64°51' E 011°14'0 0.0
2014-Oct-21 08:31N 64°52' E 011°14'0 0.0
2014-Oct-21 07:31N 64°51' E 011°14'0 0.0
2014-Oct-21 06:31N 64°52' E 011°14'0 0.0
2014-Oct-21 05:31N 64°52' E 011°14'0 0.0
2014-Oct-21 04:31N 64°52' E 011°14'0 0.0
2014-Oct-21 03:31N 64°52' E 011°14'0 0.0
2014-Oct-21 02:31N 64°51' E 011°14'0 0.0
2014-Oct-21 01:31N 64°52' E 011°14'0 0.0
2014-Oct-21 00:31N 64°51' E 011°14'0 0.0
2014-Oct-20 23:31N 64°51' E 011°14'0 0.0
2014-Oct-20 22:31N 64°51' E 011°14'0 0.0
2014-Oct-20 21:31N 64°52' E 011°14'0 0.0
2014-Oct-20 20:31N 64°52' E 011°14'0 0.0
2014-Oct-20 19:31N 64°52' E 011°14'0 0.0
2014-Oct-20 18:31N 64°51' E 011°14'0 0.0
2014-Oct-20 17:31N 64°51' E 011°14'0 0.0
2014-Oct-20 16:31N 64°52' E 011°14'0 0.0
2014-Oct-20 15:31N 64°51' E 011°14'0 0.0
2014-Oct-20 14:31N 64°52' E 011°14'0 0.0
2014-Oct-20 13:31N 64°52' E 011°14'0 0.0
2014-Oct-20 12:31N 64°52' E 011°14'0 0.0
2014-Oct-20 11:31N 64°52' E 011°14'0 0.0
2014-Oct-20 10:31N 64°52' E 011°14'0 0.0
2014-Oct-20 09:31N 64°52' E 011°14'0 0.0
2014-Oct-20 08:31N 64°52' E 011°14'0 0.0
2014-Oct-20 07:31N 64°52' E 011°14'0 0.0
2014-Oct-20 06:31N 64°52' E 011°14'0 0.0
2014-Oct-20 05:31N 64°51' E 011°14'0 0.0
2014-Oct-20 04:31N 64°51' E 011°14'0 0.0
2014-Oct-20 03:31N 64°51' E 011°14'0 0.0
2014-Oct-20 02:31N 64°51' E 011°14'0 0.0
2014-Oct-20 01:31N 64°51' E 011°14'0 0.0
2014-Oct-20 00:31N 64°52' E 011°14'0 0.0
2014-Oct-19 23:31N 64°52' E 011°14'0 0.0
2014-Oct-19 22:31N 64°51' E 011°14'0 0.0
2014-Oct-19 21:31N 64°51' E 011°14'0 0.0
2014-Oct-19 20:31N 64°52' E 011°14'0 0.0
2014-Oct-19 19:31N 64°52' E 011°14'0 0.0
2014-Oct-19 18:31N 64°52' E 011°14'0 0.0
2014-Oct-19 17:31N 64°52' E 011°14'0 0.0
2014-Oct-19 16:31N 64°51' E 011°14'0 0.0
2014-Oct-19 15:31N 64°51' E 011°14'0 0.0
2014-Oct-19 14:31N 64°52' E 011°14'0 0.0
2014-Oct-19 13:31N 64°52' E 011°14'0 0.0
2014-Oct-19 12:31N 64°51' E 011°14'0 0.0
2014-Oct-19 11:31N 64°52' E 011°14'0 0.0
2014-Oct-19 10:28N 64°51' E 011°14'0 0.0
2014-Oct-19 09:31N 64°52' E 011°14'0 0.0
2014-Oct-19 08:31N 64°52' E 011°14'0 0.0
2014-Oct-19 07:31N 64°51' E 011°14'0 0.0
2014-Oct-19 06:31N 64°51' E 011°14'0 0.0
2014-Oct-19 05:31N 64°52' E 011°14'0 0.0
2014-Oct-19 04:31N 64°51' E 011°14'0 0.0
2014-Oct-19 03:31N 64°52' E 011°14'0 0.0
2014-Oct-19 02:31N 64°51' E 011°14'0 0.0
2014-Oct-19 01:31N 64°51' E 011°14'0 0.0
2014-Oct-19 00:31N 64°52' E 011°14'0 0.0
2014-Oct-18 23:31N 64°51' E 011°14'0 0.0
2014-Oct-18 22:28N 64°51' E 011°14'0 0.0
2014-Oct-18 21:31N 64°51' E 011°14'0 0.0
2014-Oct-18 20:31N 64°51' E 011°14'0 0.0
2014-Oct-18 19:31N 64°51' E 011°14'0 0.0
2014-Oct-18 18:31N 64°51' E 011°14'0 0.0
2014-Oct-18 17:31N 64°51' E 011°14'0 0.0
2014-Oct-18 16:31N 64°51' E 011°14'0 0.0
2014-Oct-18 15:31N 64°52' E 011°14'0 0.0
2014-Oct-18 14:31N 64°51' E 011°14'0 0.0
2014-Oct-18 13:31N 64°52' E 011°14'0 0.0
2014-Oct-18 12:31N 64°52' E 011°14'0 0.0
2014-Oct-18 11:31N 64°52' E 011°14'0 0.0
2014-Oct-18 10:31N 64°51' E 011°14'0 0.0
2014-Oct-18 09:31N 64°51' E 011°14'0 0.0
2014-Oct-18 08:31N 64°52' E 011°14'0 0.0
2014-Oct-18 07:31N 64°51' E 011°14'0 0.0
2014-Oct-18 06:31N 64°51' E 011°14'0 0.0
2014-Oct-18 05:31N 64°52' E 011°14'0 0.0
2014-Oct-18 04:31N 64°52' E 011°14'0 0.0
2014-Oct-18 03:31N 64°52' E 011°14'0 0.0
2014-Oct-18 02:31N 64°51' E 011°14'0 0.0
2014-Oct-18 01:31N 64°51' E 011°14'0 0.0
2014-Oct-18 00:31N 64°52' E 011°14'0 0.0
2014-Oct-17 23:31N 64°52' E 011°14'0 0.0
2014-Oct-17 22:31N 64°51' E 011°14'0 0.0
2014-Oct-17 21:31N 64°51' E 011°14'0 0.0
2014-Oct-17 20:31N 64°52' E 011°14'0 0.0
2014-Oct-17 19:31N 64°52' E 011°14'0 0.0
2014-Oct-17 18:31N 64°51' E 011°14'0 0.0
2014-Oct-17 17:31N 64°52' E 011°14'0 0.0
2014-Oct-17 16:31N 64°52' E 011°14'0 0.0
2014-Oct-17 15:31N 64°51' E 011°14'  

Dump ship's entire track history